• Join FlightAware (Why Join?)
  • Login
  • US Flag 
04:17PM EST


 

Airport Tracker/Info


-or-


 

Live Flight TrackerFlight Track Log ✈ KAP528 ✈ 07-May-2013 ✈ KALB - KBOS

Flight Track Log - Related Links

Times and Time Zones

All times are in EDT time to prevent confusion due to time zone crossing. See the KAP528 flight status page for this flight to view local times or setup timezone preferences in your user account.

Time Position Orientation Groundspeed Altitude Reporting Facility
EDT Latitude Longitude Course Direction KTS MPH feet Rate Location/Type
02:41PM 42.7278 -73.8053 134° Southeast 104 120 1,000  Level Boston Center
02:42PM 42.7053 -73.7736 134° Southeast 121 139 2,200 1,020 Climbing Boston Center
02:43PM 42.7017 -73.7228 96° East 126 145 3,300 960 Climbing Boston Center
02:44PM 42.6958 -73.6717 99° East 131 151 4,300 1,020 Climbing Boston Center
02:45PM 42.6881 -73.6178 101° East 135 155 5,400 600 Climbing Boston Center
02:46PM 42.6803 -73.5642 101° East 140 161 5,600 180 Climbing Boston Center
02:47PM 42.6683 -73.5047 105° East 161 185 5,900 420 Climbing Boston Center
02:48PM 42.6564 -73.4592 110° East 155 178 6,400 540 Climbing Boston Center
02:49PM 42.6506 -73.4083 99° East 142 163 6,900 360 Climbing Boston Center
02:50PM 42.6447 -73.3517 98° East 141 162 7,200 360 Climbing Boston Center
02:51PM 42.6408 -73.3236 101° East 141 162 7,500 360 Climbing Boston Center
02:51PM 42.6389 -73.2981 96° East 144 166 7,600 180 Climbing Boston Center
02:52PM 42.6328 -73.2669 105° East 147 169 7,700  Climbing Boston Center
02:52PM 42.6331 -73.2386 89° East 156 180 7,600 -120 Descending Boston Center
02:53PM 42.6311 -73.2161 97° East 165 190 7,600 60 Level Boston Center
02:54PM 42.6233 -73.1456 98° East 171 197 7,700  Climbing Boston Center
02:55PM 42.6194 -73.0892 95° East 171 197 7,600 -60 Descending Boston Center
02:56PM 42.6094 -73.0183 101° East 171 197 7,600  Level Boston Center
02:57PM 42.6014 -72.9478 99° East 183 211 7,600  Level Boston Center
02:58PM 42.5933 -72.8856 100° East 178 205 7,600  Level Boston Center
02:59PM 42.5831 -72.8208 102° East 178 205 7,600  Level Boston Center
03:00PM 42.5750 -72.7558 100° East 178 205 7,600  Level Boston Center
03:01PM 42.5689 -72.6967 98° East 178 205 7,600  Level Boston Center
03:02PM 42.5608 -72.6289 99° East 172 198 7,600  Level Boston Center
03:03PM 42.5544 -72.5642 98° East 172 198 7,600  Level Boston Center
03:04PM 42.5483 -72.5133 99° East 167 192 7,600  Level Boston Center
03:05PM 42.5400 -72.4372 98° East 167 192 7,600  Level Boston Center
03:06PM 42.5317 -72.3725 100° East 167 192 7,600  Level Boston Center
03:07PM 42.5233 -72.3078 100° East 162 186 7,600  Level Boston Center
03:08PM 42.5147 -72.2400 100° East 167 192 7,600  Level Boston Center
03:09PM 42.5064 -72.1839 101° East 167 192 7,600  Level Boston Center
03:10PM 42.5000 -72.1164 97° East 167 192 7,600  Level Boston Center
03:11PM 42.4914 -72.0572 101° East 167 192 7,600 -60 Level Boston Center
03:12PM 42.4850 -71.9869 97° East 167 192 7,500 -300 Descending Boston Center
03:13PM 42.4742 -71.9250 103° East 167 192 7,100 -300 Descending Boston Center
03:14PM 42.4656 -71.8492 99° East 177 204 6,900 -300 Descending Boston Center
03:15PM 42.4589 -71.7844 98° East 184 212 6,600 -360 Descending Boston Center
03:16PM 42.4503 -71.7086 99° East 184 212 6,200 -360 Descending Boston Center
03:17PM 42.4456 -71.6467 96° East 184 212 5,900 -360 Descending Boston Center
03:18PM 42.4500 -71.5667 86° East 192 221 5,600 -180 Descending KA90
03:19PM 42.4333 -71.5000 109° East 190 219 5,600  Level KA90
03:20PM 42.4333 -71.4333 90° East 172 198 5,600  Level KA90
03:21PM 42.4333 -71.3833 90° East 173 199 5,700  Climbing KA90
03:22PM 42.4167 -71.3167 109° East 176 203 5,600 -60 Descending KA90
03:23PM 42.4167 -71.2500 90° East 176 203 5,600  Level KA90
03:24PM 42.4167 -71.1833 90° East 172 198 5,700 -300 Climbing KA90
03:25PM 42.3667 -71.1667 166° South 166 191 5,100 -780 Descending KA90
03:25PM 42.3494 -71.1731 195° South 136 157 4,600 -1,200 Descending Boston Center
03:26PM 42.3136 -71.1372 144° Southeast 149 171 3,300 -1,260 Descending Boston Center
03:27PM 42.3167 -71.1167 79° East 145 167 2,900 -1,200 Descending KA90
03:28PM 42.3167 -71.0667 90° East 146 168 1,500 -1,140 Descending KA90
03:29PM 42.3500 -71.0167 48° Northeast 135 155 600 -900 Descending KA90
03:31PM 42.3500 -71.0000 103° East  Level FlightAware Approximate
03:38PM 42.3630 -71.0064 103° East  Level Estimated